Time;durP1;ratioP1;P1;durP2;ratioP2;P2;SDS_P1;SDS_P2;PMS_P1;PMS_P2;Temp;Humidity;BMP_temperature;BMP_pressure;BME280_temperature;BME280_humidity;BME280_pressure;Samples;Min_cycle;Max_cycle;Signal;HPM_P1;HPM_P2
2023/11/09 00:01:32;;;;;;;;;;;;;;;;;;5059773;28;19929;-74
2023/11/09 00:03:59;;;;;;;;;;;;;;;;;;5056056;28;19983;-74
2023/11/09 00:06:26;;;;;;;;;;;;;;;;;;5072364;28;19967;-74
2023/11/09 00:08:53;;;;;;;;;;;;;;;;;;5056726;28;19925;-74
2023/11/09 00:11:20;;;;;;;;;;;;;;;;;;5069244;28;20018;-74
2023/11/09 00:13:49;;;;;;;;;;;;;;;;;;5069505;28;20669;-73
2023/11/09 00:16:16;;;;;;;;;;;;;;;;;;5057822;28;19994;-74
2023/11/09 00:18:43;;;;;;;;;;;;;;;;;;5072953;28;19929;-73
2023/11/09 00:21:10;;;;;;;;;;;;;;;;;;5070486;28;19978;-72
2023/11/09 00:23:37;;;;;;;;;;;;;;;;;;5055396;28;20019;-74
2023/11/09 00:26:04;;;;;;;;;;;;;;;;;;5058533;28;20020;-73
2023/11/09 00:28:31;;;;;;;;;;;;;;;;;;5066339;28;20034;-73
2023/11/09 00:30:58;;;;;;;;;;;;;;;;;;5074042;28;19958;-73
2023/11/09 00:33:25;;;;;;;;;;;;;;;;;;5065997;28;20430;-73
2023/11/09 00:35:53;;;;;;;;;;;;;;;;;;5055772;28;20021;-73
2023/11/09 00:38:20;;;;;;;;;;;;;;;;;;5055257;28;19925;-73
2023/11/09 00:40:47;;;;;;;;;;;;;;;;;;5061048;28;20016;-73
2023/11/09 00:43:14;;;;;;;;;;;;;;;;;;5071152;28;20011;-74
2023/11/09 00:45:41;;;;;;;;;;;;;;;;;;5074576;28;20024;-73
2023/11/09 00:48:08;;;;;;;;;;;;;;;;;;5067007;28;20354;-74
2023/11/09 00:50:35;;;;;;;;;;;;;;;;;;5055558;28;20015;-74
2023/11/09 00:53:02;;;;;;;;;;;;;;;;;;5068473;28;19931;-73
2023/11/09 00:55:29;;;;;;;;;;;;;;;;;;5075166;28;20328;-73
2023/11/09 00:57:56;;;;;;;;;;;;;;;;;;5068754;28;19928;-73
2023/11/09 01:00:23;;;;;;;;;;;;;;;;;;5060557;28;19932;-72
2023/11/09 01:02:51;;;;;;;;;;;;;;;;;;5060749;28;20272;-73
2023/11/09 01:05:18;;;;;;;;;;;;;;;;;;5055038;28;19925;-73
2023/11/09 01:07:46;;;;;;;;;;;;;;;;;;5057315;28;19932;-73
2023/11/09 01:10:13;;;;;;;;;;;;;;;;;;5088778;28;20033;-73
2023/11/09 01:12:40;;;;;;;;;;;;;;;;;;5079652;28;19975;-73
2023/11/09 01:15:07;;;;;;;;;;;;;;;;;;5070159;28;20039;-74
2023/11/09 01:17:34;;;;;;;;;;;;;;;;;;5069883;28;20414;-73
2023/11/09 01:20:01;;;;;;;;;;;;;;;;;;5055611;28;20007;-73
2023/11/09 01:22:28;;;;;;;;;;;;;;;;;;5070821;28;19932;-73
2023/11/09 01:24:56;;;;;;;;;;;;;;;;;;5066119;28;20028;-73
2023/11/09 01:27:23;;;;;;;;;;;;;;;;;;5071440;28;19928;-73
2023/11/09 01:29:50;;;;;;;;;;;;;;;;;;5094912;28;19924;-73
2023/11/09 01:32:17;;;;;;;;;;;;;;;;;;5070388;28;19972;-73
2023/11/09 01:34:46;;;;;;;;;;;;;;;;;;5069741;28;19982;-72
2023/11/09 01:37:13;;;;;;;;;;;;;;;;;;5060108;28;19931;-73
2023/11/09 01:39:40;;;;;;;;;;;;;;;;;;5055164;28;19928;-73
2023/11/09 01:42:07;;;;;;;;;;;;;;;;;;5065705;28;19987;-72
2023/11/09 01:44:35;;;;;;;;;;;;;;;;;;5054122;28;19931;-72
2023/11/09 01:47:02;;;;;;;;;;;;;;;;;;5058275;28;19924;-72
2023/11/09 01:49:30;;;;;;;;;;;;;;;;;;5057006;28;19979;-72
2023/11/09 01:51:57;;;;;;;;;;;;;;;;;;5064171;28;20399;-73
2023/11/09 01:54:24;;;;;;;;;;;;;;;;;;5076015;28;19963;-72
2023/11/09 01:56:51;;;;;;;;;;;;;;;;;;5089059;28;20024;-73
2023/11/09 01:59:18;;;;;;;;;;;;;;;;;;5061897;28;19981;-73
2023/11/09 02:01:45;;;;;;;;;;;;;;;;;;5073081;28;19971;-74
2023/11/09 02:04:12;;;;;;;;;;;;;;;;;;5067533;28;19926;-73
2023/11/09 02:06:39;;;;;;;;;;;;;;;;;;5073770;28;20000;-74
2023/11/09 02:09:06;;;;;;;;;;;;;;;;;;5073072;28;19925;-73
2023/11/09 02:11:33;;;;;;;;;;;;;;;;;;5073343;28;19975;-72
2023/11/09 02:14:00;;;;;;;;;;;;;;;;;;5060702;28;20003;-73
2023/11/09 02:16:27;;;;;;;;;;;;;;;;;;5053786;28;20015;-73
2023/11/09 02:18:54;;;;;;;;;;;;;;;;;;5069187;28;19995;-73
2023/11/09 02:21:21;;;;;;;;;;;;;;;;;;5073672;28;19972;-73
2023/11/09 02:23:48;;;;;;;;;;;;;;;;;;5071412;28;19928;-72
2023/11/09 02:26:16;;;;;;;;;;;;;;;;;;5060588;28;20015;-72
2023/11/09 02:28:43;;;;;;;;;;;;;;;;;;5063857;28;19925;-72
2023/11/09 02:31:10;;;;;;;;;;;;;;;;;;5079296;28;19978;-72
2023/11/09 02:33:36;;;;;;;;;;;;;;;;;;5064885;28;20713;-73
2023/11/09 02:36:04;;;;;;;;;;;;;;;;;;5053240;28;20454;-73
2023/11/09 02:38:31;;;;;;;;;;;;;;;;;;5053367;28;19924;-73
2023/11/09 02:40:58;;;;;;;;;;;;;;;;;;5056101;28;19925;-73
2023/11/09 02:43:25;;;;;;;;;;;;;;;;;;5066662;28;20011;-73
2023/11/09 02:45:53;;;;;;;;;;;;;;;;;;5072238;28;20433;-73
2023/11/09 02:48:20;;;;;;;;;;;;;;;;;;5065270;28;19925;-73
2023/11/09 02:50:47;;;;;;;;;;;;;;;;;;5053206;28;20486;-73
2023/11/09 02:53:14;;;;;;;;;;;;;;;;;;5060806;28;20376;-72
2023/11/09 02:55:41;;;;;;;;;;;;;;;;;;5053223;28;19975;-73
2023/11/09 02:58:08;;;;;;;;;;;;;;;;;;5071213;28;19971;-72
2023/11/09 03:00:35;;;;;;;;;;;;;;;;;;5070659;28;20335;-73
2023/11/09 03:03:03;;;;;;;;;;;;;;;;;;5070998;28;19951;-73
2023/11/09 03:05:30;;;;;;;;;;;;;;;;;;5072850;28;19931;-73
2023/11/09 03:07:57;;;;;;;;;;;;;;;;;;5072586;28;19925;-72
2023/11/09 03:10:24;;;;;;;;;;;;;;;;;;5072511;28;19928;-73
2023/11/09 03:12:51;;;;;;;;;;;;;;;;;;5071386;28;19978;-73
2023/11/09 03:15:19;;;;;;;;;;;;;;;;;;5072627;28;20371;-73
2023/11/09 03:17:46;;;;;;;;;;;;;;;;;;5056308;28;19925;-74
2023/11/09 03:20:13;;;;;;;;;;;;;;;;;;5072792;28;20463;-73
2023/11/09 03:22:40;;;;;;;;;;;;;;;;;;5072369;28;19932;-73
2023/11/09 03:25:07;;;;;;;;;;;;;;;;;;5054486;28;19968;-73
2023/11/09 03:27:34;;;;;;;;;;;;;;;;;;5051536;28;20368;-74
2023/11/09 03:30:01;;;;;;;;;;;;;;;;;;5054821;28;19979;-73
2023/11/09 03:32:28;;;;;;;;;;;;;;;;;;5092334;28;19993;-72
2023/11/09 03:34:55;;;;;;;;;;;;;;;;;;5070736;28;19925;-73
2023/11/09 03:37:22;;;;;;;;;;;;;;;;;;5070509;28;20023;-73
2023/11/09 03:39:50;;;;;;;;;;;;;;;;;;5069306;28;19925;-73
2023/11/09 03:42:17;;;;;;;;;;;;;;;;;;5061165;28;19925;-73
2023/11/09 03:44:44;;;;;;;;;;;;;;;;;;5064686;28;19944;-73
2023/11/09 03:47:11;;;;;;;;;;;;;;;;;;5067942;28;19925;-72
2023/11/09 03:49:38;;;;;;;;;;;;;;;;;;5063909;28;20016;-72
2023/11/09 03:52:05;;;;;;;;;;;;;;;;;;5062411;28;20012;-72
2023/11/09 03:54:32;;;;;;;;;;;;;;;;;;5063537;28;20326;-73
2023/11/09 03:56:59;;;;;;;;;;;;;;;;;;5070907;28;19978;-72
2023/11/09 03:59:26;;;;;;;;;;;;;;;;;;5071084;28;19924;-73
2023/11/09 04:01:53;;;;;;;;;;;;;;;;;;5066657;28;19972;-73
2023/11/09 04:04:20;;;;;;;;;;;;;;;;;;5066217;28;19925;-73
2023/11/09 04:06:47;;;;;;;;;;;;;;;;;;5067684;28;19931;-72
2023/11/09 04:09:14;;;;;;;;;;;;;;;;;;5051963;28;19984;-72
2023/11/09 04:11:41;;;;;;;;;;;;;;;;;;5067728;28;20015;-72
2023/11/09 04:14:08;;;;;;;;;;;;;;;;;;5067464;28;19980;-72
2023/11/09 04:16:35;;;;;;;;;;;;;;;;;;5071471;28;19925;-71
2023/11/09 04:19:02;;;;;;;;;;;;;;;;;;5069222;28;19976;-71
2023/11/09 04:21:29;;;;;;;;;;;;;;;;;;5071427;28;19967;-73
2023/11/09 04:23:56;;;;;;;;;;;;;;;;;;5062186;28;19932;-72
2023/11/09 04:26:23;;;;;;;;;;;;;;;;;;5066257;28;20039;-72
2023/11/09 04:28:51;;;;;;;;;;;;;;;;;;5059777;28;19925;-72
2023/11/09 04:31:20;;;;;;;;;;;;;;;;;;5070494;28;19947;-72
2023/11/09 04:33:47;;;;;;;;;;;;;;;;;;5064311;28;20342;-72
2023/11/09 04:36:14;;;;;;;;;;;;;;;;;;5057273;28;20517;-73
2023/11/09 04:38:41;;;;;;;;;;;;;;;;;;5072206;28;19928;-72
2023/11/09 04:41:12;;;;;;;;;;;;;;;;;;5056859;28;20015;-73
2023/11/09 04:43:41;;;;;;;;;;;;;;;;;;5068419;28;19925;-72
2023/11/09 04:46:11;;;;;;;;;;;;;;;;;;5070481;28;20015;-71
2023/11/09 04:48:44;;;;;;;;;;;;;;;;;;5060138;28;19939;-73
2023/11/09 04:51:20;;;;;;;;;;;;;;;;;;5060493;28;20402;-72
2023/11/09 04:53:50;;;;;;;;;;;;;;;;;;5060270;28;19971;-72
2023/11/09 04:56:32;;;;;;;;;;;;;;;;;;5057504;28;19925;-71
2023/11/09 04:59:02;;;;;;;;;;;;;;;;;;5069733;28;19924;-72
2023/11/09 05:06:58;;;;;;;;;;;;;;;;;;5072930;28;20022;-72
2023/11/09 05:09:27;;;;;;;;;;;;;;;;;;5071358;28;19925;-73
2023/11/09 05:11:54;;;;;;;;;;;;;;;;;;5074882;28;20429;-71
2023/11/09 05:14:21;;;;;;;;;;;;;;;;;;5093216;28;19931;-71
2023/11/09 05:16:48;;;;;;;;;;;;;;;;;;5059106;28;20003;-72
2023/11/09 05:19:15;;;;;;;;;;;;;;;;;;5062448;28;19970;-71
2023/11/09 05:21:42;;;;;;;;;;;;;;;;;;5074319;28;20322;-72
2023/11/09 05:24:09;;;;;;;;;;;;;;;;;;5074790;28;19929;-72
2023/11/09 05:26:37;;;;;;;;;;;;;;;;;;5068176;28;20304;-73
2023/11/09 05:29:05;;;;;;;;;;;;;;;;;;5056769;28;19928;-72
2023/11/09 05:31:34;;;;;;;;;;;;;;;;;;5054472;28;19979;-73
2023/11/09 05:34:01;;;;;;;;;;;;;;;;;;5073249;28;19932;-72
2023/11/09 05:36:28;;;;;;;;;;;;;;;;;;5074800;28;19924;-73
2023/11/09 05:38:55;;;;;;;;;;;;;;;;;;5073738;28;20020;-72
2023/11/09 05:41:22;;;;;;;;;;;;;;;;;;5074053;28;19971;-72
2023/11/09 05:43:49;;;;;;;;;;;;;;;;;;5074504;28;20362;-72
2023/11/09 05:46:16;;;;;;;;;;;;;;;;;;5072928;28;19971;-72
2023/11/09 05:48:43;;;;;;;;;;;;;;;;;;5073270;28;19979;-72
2023/11/09 05:51:10;;;;;;;;;;;;;;;;;;5055570;28;19929;-72
2023/11/09 05:53:37;;;;;;;;;;;;;;;;;;5063917;28;19929;-72
2023/11/09 05:56:04;;;;;;;;;;;;;;;;;;5074816;28;19978;-71
2023/11/09 05:58:31;;;;;;;;;;;;;;;;;;5094462;28;20011;-72
2023/11/09 06:00:58;;;;;;;;;;;;;;;;;;5072652;28;19964;-70
2023/11/09 06:03:25;;;;;;;;;;;;;;;;;;5072677;28;20302;-71
2023/11/09 06:05:52;;;;;;;;;;;;;;;;;;5069131;28;19925;-70
2023/11/09 06:08:20;;;;;;;;;;;;;;;;;;5056249;28;20437;-71
2023/11/09 06:10:49;;;;;;;;;;;;;;;;;;5064758;28;20460;-71
2023/11/09 06:13:16;;;;;;;;;;;;;;;;;;5070805;28;19925;-70
2023/11/09 06:15:43;;;;;;;;;;;;;;;;;;5072989;28;20546;-70
2023/11/09 06:18:10;;;;;;;;;;;;;;;;;;5088806;28;20402;-70
2023/11/09 06:20:37;;;;;;;;;;;;;;;;;;5069418;28;19936;-70
2023/11/09 06:23:04;;;;;;;;;;;;;;;;;;5053136;28;20403;-71
2023/11/09 06:25:31;;;;;;;;;;;;;;;;;;5053209;28;20398;-71
2023/11/09 06:27:58;;;;;;;;;;;;;;;;;;5059146;28;20016;-70
2023/11/09 06:30:27;;;;;;;;;;;;;;;;;;5060938;28;20031;-71
2023/11/09 06:32:54;;;;;;;;;;;;;;;;;;5062656;28;19971;-70
2023/11/09 06:35:21;;;;;;;;;;;;;;;;;;5068179;28;20383;-70
2023/11/09 06:37:50;;;;;;;;;;;;;;;;;;5061488;28;19968;-71
2023/11/09 06:40:17;;;;;;;;;;;;;;;;;;5058080;28;19924;-71
2023/11/09 06:42:44;;;;;;;;;;;;;;;;;;5064373;28;19932;-70
2023/11/09 06:45:11;;;;;;;;;;;;;;;;;;5057041;28;19925;-70
2023/11/09 06:47:42;;;;;;;;;;;;;;;;;;5067656;28;19967;-70
2023/11/09 06:50:12;;;;;;;;;;;;;;;;;;5070874;28;20321;-71
2023/11/09 06:52:51;;;;;;;;;;;;;;;;;;5069392;28;19931;-71
2023/11/09 06:55:24;;;;;;;;;;;;;;;;;;5070773;22;19932;-71
2023/11/09 06:57:53;;;;;;;;;;;;;;;;;;5051264;28;20050;-70
2023/11/09 07:00:21;;;;;;;;;;;;;;;;;;5042607;28;19929;-70
2023/11/09 07:02:49;;;;;;;;;;;;;;;;;;5051118;28;19929;-70
2023/11/09 07:05:16;;;;;;;;;;;;;;;;;;5046127;28;20453;-69
2023/11/09 07:07:43;;;;;;;;;;;;;;;;;;5038493;28;20019;-70
2023/11/09 07:10:10;;;;;;;;;;;;;;;;;;5042911;28;19933;-70
2023/11/09 07:12:37;;;;;;;;;;;;;;;;;;5043619;28;20353;-70
2023/11/09 07:15:04;;;;;;;;;;;;;;;;;;5056169;28;19971;-70
2023/11/09 07:17:31;;;;;;;;;;;;;;;;;;5045357;28;19925;-71
2023/11/09 07:19:59;;;;;;;;;;;;;;;;;;5049626;28;19929;-70
2023/11/09 07:22:25;;;;;;;;;;;;;;;;;;5050767;28;19963;-70
2023/11/09 07:24:56;;;;;;;;;;;;;;;;;;5049723;28;19931;-70
2023/11/09 07:27:23;;;;;;;;;;;;;;;;;;5051368;28;19929;-69
2023/11/09 07:29:50;;;;;;;;;;;;;;;;;;5049756;28;19925;-70
2023/11/09 07:32:17;;;;;;;;;;;;;;;;;;5051417;28;20233;-70
2023/11/09 07:34:44;;;;;;;;;;;;;;;;;;5051011;28;19931;-70
2023/11/09 07:37:13;;;;;;;;;;;;;;;;;;5050689;28;19979;-70
2023/11/09 07:39:42;;;;;;;;;;;;;;;;;;5047064;28;20551;-70
2023/11/09 07:42:09;;;;;;;;;;;;;;;;;;5037914;28;19929;-70
2023/11/09 07:44:36;;;;;;;;;;;;;;;;;;5051382;28;20015;-70
2023/11/09 07:47:03;;;;;;;;;;;;;;;;;;5053483;28;19976;-69
2023/11/09 07:49:30;;;;;;;;;;;;;;;;;;5050804;28;19931;-69
2023/11/09 07:51:58;;;;;;;;;;;;;;;;;;5044696;28;19929;-69
2023/11/09 07:54:25;;;;;;;;;;;;;;;;;;5050638;28;19978;-70
2023/11/09 07:56:52;;;;;;;;;;;;;;;;;;5048629;28;19991;-69
2023/11/09 07:59:19;;;;;;;;;;;;;;;;;;5046975;28;20451;-68
2023/11/09 08:01:46;;;;;;;;;;;;;;;;;;5050197;28;19925;-70
2023/11/09 08:04:13;;;;;;;;;;;;;;;;;;5050481;28;19966;-72
2023/11/09 08:06:42;;;;;;;;;;;;;;;;;;5047326;28;20332;-70
2023/11/09 08:09:12;;;;;;;;;;;;;;;;;;5051438;28;20311;-70
2023/11/09 08:11:42;;;;;;;;;;;;;;;;;;5048670;28;19972;-71
2023/11/09 08:14:09;;;;;;;;;;;;;;;;;;5054391;28;20299;-71
2023/11/09 08:16:36;;;;;;;;;;;;;;;;;;5054781;28;20024;-71
2023/11/09 08:19:03;;;;;;;;;;;;;;;;;;5055143;28;19971;-71
2023/11/09 08:21:30;;;;;;;;;;;;;;;;;;5051345;28;20000;-71
2023/11/09 08:23:57;;;;;;;;;;;;;;;;;;5047063;28;20011;-71
2023/11/09 08:26:25;;;;;;;;;;;;;;;;;;5055200;28;20027;-71
2023/11/09 08:28:53;;;;;;;;;;;;;;;;;;5048485;28;19985;-70
2023/11/09 08:31:21;;;;;;;;;;;;;;;;;;5058424;28;20006;-70
2023/11/09 08:33:49;;;;;;;;;;;;;;;;;;5056169;28;20284;-70
2023/11/09 08:36:16;;;;;;;;;;;;;;;;;;5052875;28;19966;-71
2023/11/09 08:38:43;;;;;;;;;;;;;;;;;;5054369;28;20034;-71
2023/11/09 08:41:11;;;;;;;;;;;;;;;;;;5053474;28;20023;-71
2023/11/09 08:43:38;;;;;;;;;;;;;;;;;;5052420;28;19925;-71
2023/11/09 08:46:05;;;;;;;;;;;;;;;;;;5050207;28;19939;-70
2023/11/09 08:48:32;;;;;;;;;;;;;;;;;;5062336;28;20007;-71
2023/11/09 08:51:00;;;;;;;;;;;;;;;;;;5052201;28;20016;-71
2023/11/09 08:53:29;;;;;;;;;;;;;;;;;;5049587;28;20398;-72
2023/11/09 08:55:56;;;;;;;;;;;;;;;;;;5044247;28;19999;-70
2023/11/09 08:58:24;;;;;;;;;;;;;;;;;;5055908;28;19924;-71
2023/11/09 09:00:53;;;;;;;;;;;;;;;;;;5053438;28;20399;-72
2023/11/09 09:03:21;;;;;;;;;;;;;;;;;;5049475;28;19924;-71
2023/11/09 09:05:48;;;;;;;;;;;;;;;;;;5049041;28;19925;-71
2023/11/09 09:08:16;;;;;;;;;;;;;;;;;;5051263;28;20019;-71
2023/11/09 09:10:43;;;;;;;;;;;;;;;;;;5050228;28;19943;-71
2023/11/09 09:13:10;;;;;;;;;;;;;;;;;;5050928;28;20012;-71
2023/11/09 09:15:39;;;;;;;;;;;;;;;;;;5054326;28;19974;-71
2023/11/09 09:18:09;;;;;;;;;;;;;;;;;;5042480;28;20012;-71
2023/11/09 09:20:37;;;;;;;;;;;;;;;;;;5046263;28;19987;-70
2023/11/09 09:23:05;;;;;;;;;;;;;;;;;;5051393;28;20292;-71
2023/11/09 09:25:32;;;;;;;;;;;;;;;;;;5043842;28;19979;-71
2023/11/09 09:27:59;;;;;;;;;;;;;;;;;;5049596;28;19925;-72
2023/11/09 09:30:26;;;;;;;;;;;;;;;;;;5049150;28;19936;-71
2023/11/09 09:32:53;;;;;;;;;;;;;;;;;;5051549;28;19944;-71
2023/11/09 09:35:23;;;;;;;;;;;;;;;;;;5052307;28;20019;-71
2023/11/09 09:37:50;;;;;;;;;;;;;;;;;;5051936;28;19924;-72
2023/11/09 09:40:19;;;;;;;;;;;;;;;;;;5049007;28;20012;-72
2023/11/09 09:42:46;;;;;;;;;;;;;;;;;;5052001;28;20268;-71
2023/11/09 09:45:13;;;;;;;;;;;;;;;;;;5052906;28;19924;-72
2023/11/09 09:47:41;;;;;;;;;;;;;;;;;;5049492;28;20019;-71
2023/11/09 09:50:09;;;;;;;;;;;;;;;;;;5051564;28;20025;-71
2023/11/09 09:52:38;;;;;;;;;;;;;;;;;;5047712;28;19925;-71
2023/11/09 09:55:05;;;;;;;;;;;;;;;;;;5068402;28;19924;-76
2023/11/09 09:57:32;;;;;;;;;;;;;;;;;;5060504;28;20395;-70
2023/11/09 10:00:01;;;;;;;;;;;;;;;;;;5050298;28;20023;-70
2023/11/09 10:02:27;;;;;;;;;;;;;;;;;;5053805;28;20302;-72
2023/11/09 10:04:55;;;;;;;;;;;;;;;;;;5051547;28;20008;-71
2023/11/09 10:07:22;;;;;;;;;;;;;;;;;;5052530;28;19925;-72
2023/11/09 10:09:52;;;;;;;;;;;;;;;;;;5051884;28;19968;-70
2023/11/09 10:12:19;;;;;;;;;;;;;;;;;;5054770;28;19978;-70
2023/11/09 10:14:47;;;;;;;;;;;;;;;;;;5055639;28;19936;-70
2023/11/09 10:17:14;;;;;;;;;;;;;;;;;;5047480;28;20310;-70
2023/11/09 10:19:41;;;;;;;;;;;;;;;;;;5049503;28;20030;-70
2023/11/09 10:22:08;;;;;;;;;;;;;;;;;;5046970;28;19972;-68
2023/11/09 10:24:37;;;;;;;;;;;;;;;;;;5051839;28;20465;-68
2023/11/09 10:27:06;;;;;;;;;;;;;;;;;;5051950;28;20451;-70
2023/11/09 10:29:34;;;;;;;;;;;;;;;;;;5049701;28;19925;-70
2023/11/09 10:32:01;;;;;;;;;;;;;;;;;;5050283;28;19931;-69
2023/11/09 10:34:29;;;;;;;;;;;;;;;;;;5053323;28;20387;-69
2023/11/09 10:36:56;;;;;;;;;;;;;;;;;;5047831;28;19924;-69
2023/11/09 10:39:24;;;;;;;;;;;;;;;;;;5047208;28;20021;-69
2023/11/09 10:41:52;;;;;;;;;;;;;;;;;;5054574;28;20490;-69
2023/11/09 10:44:22;;;;;;;;;;;;;;;;;;5050469;28;19924;-69
2023/11/09 10:46:49;;;;;;;;;;;;;;;;;;5050251;28;19979;-69
2023/11/09 10:49:17;;;;;;;;;;;;;;;;;;5046731;28;20023;-69
2023/11/09 10:51:47;;;;;;;;;;;;;;;;;;5049338;28;19932;-71
2023/11/09 10:54:15;;;;;;;;;;;;;;;;;;5046689;28;19924;-71
2023/11/09 10:56:42;;;;;;;;;;;;;;;;;;5050353;28;19935;-69
2023/11/09 10:59:09;;;;;;;;;;;;;;;;;;5039838;28;20055;-69
2023/11/09 11:01:36;;;;;;;;;;;;;;;;;;5044395;28;19925;-70
2023/11/09 11:04:08;;;;;;;;;;;;;;;;;;5053830;28;19925;-70
2023/11/09 11:06:35;;;;;;;;;;;;;;;;;;5042383;28;19925;-72
2023/11/09 11:09:02;;;;;;;;;;;;;;;;;;5040536;28;20427;-72
2023/11/09 11:11:31;;;;;;;;;;;;;;;;;;5044376;28;19990;-74
2023/11/09 11:13:58;;;;;;;;;;;;;;;;;;5037973;28;20335;-76
2023/11/09 11:16:24;;;;;;;;;;;;;;;;;;5049883;28;20011;-74
2023/11/09 11:18:52;;;;;;;;;;;;;;;;;;5057913;28;20027;-73
2023/11/09 11:21:20;;;;;;;;;;;;;;;;;;5048055;28;19925;-75
2023/11/09 11:23:47;;;;;;;;;;;;;;;;;;5038993;28;19933;-74
2023/11/09 11:26:14;;;;;;;;;;;;;;;;;;5051913;28;19975;-72
2023/11/09 11:28:41;;;;;;;;;;;;;;;;;;5046502;28;20052;-76
2023/11/09 11:31:11;;;;;;;;;;;;;;;;;;5041079;28;20008;-74
2023/11/09 11:33:39;;;;;;;;;;;;;;;;;;5060792;28;20394;-74
2023/11/09 11:36:07;;;;;;;;;;;;;;;;;;5051333;28;20015;-74
2023/11/09 11:38:35;;;;;;;;;;;;;;;;;;5048130;28;19925;-76
2023/11/09 11:41:02;;;;;;;;;;;;;;;;;;5044262;28;19929;-74
2023/11/09 11:43:29;;;;;;;;;;;;;;;;;;5038852;28;20012;-74
2023/11/09 11:45:57;;;;;;;;;;;;;;;;;;5043888;28;19932;-75
2023/11/09 11:48:25;;;;;;;;;;;;;;;;;;5052815;28;19925;-73
2023/11/09 11:50:52;;;;;;;;;;;;;;;;;;5054224;28;20027;-74
2023/11/09 11:53:20;;;;;;;;;;;;;;;;;;5048435;28;20197;-74
2023/11/09 11:55:47;;;;;;;;;;;;;;;;;;5034879;28;19925;-74
2023/11/09 11:58:14;;;;;;;;;;;;;;;;;;5042046;28;20060;-74
2023/11/09 12:00:41;;;;;;;;;;;;;;;;;;5051009;28;19976;-74
2023/11/09 12:03:09;;;;;;;;;;;;;;;;;;5044748;28;19944;-74
2023/11/09 12:05:38;;;;;;;;;;;;;;;;;;5044654;28;19931;-74
2023/11/09 12:08:06;;;;;;;;;;;;;;;;;;5037763;28;19925;-74
2023/11/09 12:10:39;;;;;;;;;;;;;;;;;;5044732;28;19932;-74
2023/11/09 12:13:07;;;;;;;;;;;;;;;;;;5042726;28;19971;-74
2023/11/09 12:15:34;;;;;;;;;;;;;;;;;;5046854;28;19925;-73
2023/11/09 12:18:02;;;;;;;;;;;;;;;;;;5049580;28;19925;-73
2023/11/09 12:20:33;;;;;;;;;;;;;;;;;;5048970;28;19924;-75
2023/11/09 12:23:00;;;;;;;;;;;;;;;;;;5050313;28;19929;-74
2023/11/09 12:25:28;;;;;;;;;;;;;;;;;;5049884;28;19936;-73
2023/11/09 12:27:55;;;;;;;;;;;;;;;;;;5051118;28;19979;-73
2023/11/09 12:30:23;;;;;;;;;;;;;;;;;;5048388;28;20038;-74
2023/11/09 12:32:50;;;;;;;;;;;;;;;;;;5047242;28;20020;-72
2023/11/09 12:35:18;;;;;;;;;;;;;;;;;;5050924;28;20384;-73
2023/11/09 12:37:49;;;;;;;;;;;;;;;;;;5045748;28;19925;-74
2023/11/09 12:40:17;;;;;;;;;;;;;;;;;;5047532;28;19952;-74
2023/11/09 12:42:44;;;;;;;;;;;;;;;;;;5041921;28;19924;-73
2023/11/09 12:45:11;;;;;;;;;;;;;;;;;;5042371;28;19951;-74
2023/11/09 12:47:39;;;;;;;;;;;;;;;;;;5050609;28;20370;-73
2023/11/09 12:50:07;;;;;;;;;;;;;;;;;;5049026;28;20426;-73
2023/11/09 12:52:40;;;;;;;;;;;;;;;;;;5049701;28;19932;-75
2023/11/09 12:55:07;;;;;;;;;;;;;;;;;;5044713;28;19932;-76
2023/11/09 12:57:35;;;;;;;;;;;;;;;;;;5050695;28;19925;-77
2023/11/09 13:00:04;;;;;;;;;;;;;;;;;;5050680;28;19925;-76
2023/11/09 13:02:42;;;;;;;;;;;;;;;;;;5053766;28;19982;-77
2023/11/09 13:05:09;;;;;;;;;;;;;;;;;;5052780;28;20004;-76
2023/11/09 13:07:36;;;;;;;;;;;;;;;;;;5053107;28;20330;-77
2023/11/09 13:10:18;;;;;;;;;;;;;;;;;;5051805;28;20012;-76
2023/11/09 13:12:47;;;;;;;;;;;;;;;;;;5038286;28;19960;-73
2023/11/09 13:15:21;;;;;;;;;;;;;;;;;;5042999;28;19929;-76
2023/11/09 13:17:51;;;;;;;;;;;;;;;;;;5048017;28;19933;-77
2023/11/09 13:20:27;;;;;;;;;;;;;;;;;;5053860;28;19932;-75
2023/11/09 13:22:56;;;;;;;;;;;;;;;;;;5053007;28;19956;-75
2023/11/09 13:25:28;;;;;;;;;;;;;;;;;;5049413;28;19925;-75
2023/11/09 13:27:56;;;;;;;;;;;;;;;;;;5050943;28;19925;-77
2023/11/09 13:30:24;;;;;;;;;;;;;;;;;;5040707;28;19998;-77
2023/11/09 13:32:52;;;;;;;;;;;;;;;;;;5045213;28;20430;-75
2023/11/09 13:35:24;;;;;;;;;;;;;;;;;;5052743;28;20024;-76
2023/11/09 13:37:57;;;;;;;;;;;;;;;;;;5049029;28;19932;-75
2023/11/09 13:40:35;;;;;;;;;;;;;;;;;;5052625;28;20315;-75
2023/11/09 13:43:09;;;;;;;;;;;;;;;;;;5049724;28;19925;-76
2023/11/09 13:45:36;;;;;;;;;;;;;;;;;;5051887;28;19929;-73
2023/11/09 13:48:09;;;;;;;;;;;;;;;;;;5049341;28;19925;-74
2023/11/09 13:50:37;;;;;;;;;;;;;;;;;;5040233;28;20355;-76
2023/11/09 13:53:16;;;;;;;;;;;;;;;;;;5050444;28;19925;-74
2023/11/09 13:55:59;;;;;;;;;;;;;;;;;;5052466;28;19966;-73
2023/11/09 13:58:25;;;;;;;;;;;;;;;;;;5050594;28;20355;-74
2023/11/09 14:00:54;;;;;;;;;;;;;;;;;;5040877;28;19963;-74
2023/11/09 14:03:20;;;;;;;;;;;;;;;;;;5041887;28;19925;-74
2023/11/09 14:05:48;;;;;;;;;;;;;;;;;;5043597;28;19925;-74
2023/11/09 14:08:20;;;;;;;;;;;;;;;;;;5042556;28;20391;-74
2023/11/09 14:10:48;;;;;;;;;;;;;;;;;;5041567;28;19932;-73
2023/11/09 14:13:16;;;;;;;;;;;;;;;;;;5053069;28;19924;-74
2023/11/09 14:15:49;;;;;;;;;;;;;;;;;;5048084;28;19929;-73
2023/11/09 14:18:43;;;;;;;;;;;;;;;;;;5046675;28;19925;-74
2023/11/09 14:21:17;;;;;;;;;;;;;;;;;;5047181;28;20602;-75
2023/11/09 14:23:44;;;;;;;;;;;;;;;;;;5065404;28;19924;-74
2023/11/09 14:26:11;;;;;;;;;;;;;;;;;;5049297;28;20013;-75
2023/11/09 14:28:38;;;;;;;;;;;;;;;;;;5050441;28;19934;-73
2023/11/09 14:31:07;;;;;;;;;;;;;;;;;;5046985;28;19925;-74
2023/11/09 14:33:35;;;;;;;;;;;;;;;;;;5049873;28;19925;-73
2023/11/09 14:36:06;;;;;;;;;;;;;;;;;;5048459;28;19924;-73
2023/11/09 14:38:33;;;;;;;;;;;;;;;;;;5051503;28;19933;-74
2023/11/09 14:41:00;;;;;;;;;;;;;;;;;;5040823;28;19952;-74
2023/11/09 14:43:29;;;;;;;;;;;;;;;;;;5046922;28;19948;-72
2023/11/09 14:46:04;;;;;;;;;;;;;;;;;;5050307;28;19978;-73
2023/11/09 14:48:31;;;;;;;;;;;;;;;;;;5051881;28;19935;-73
2023/11/09 14:50:59;;;;;;;;;;;;;;;;;;5046294;28;20459;-72
2023/11/09 14:53:27;;;;;;;;;;;;;;;;;;5057863;28;21088;-75
2023/11/09 14:55:58;;;;;;;;;;;;;;;;;;5045184;28;19938;-73
2023/11/09 14:58:30;;;;;;;;;;;;;;;;;;5047225;28;19933;-72
2023/11/09 15:00:59;;;;;;;;;;;;;;;;;;5045867;28;19932;-74
2023/11/09 15:03:27;;;;;;;;;;;;;;;;;;5044679;28;20379;-74
2023/11/09 15:05:59;;;;;;;;;;;;;;;;;;5048424;28;19925;-74
2023/11/09 15:08:27;;;;;;;;;;;;;;;;;;5050687;28;19948;-74
2023/11/09 15:10:56;;;;;;;;;;;;;;;;;;5045665;28;20470;-74
2023/11/09 15:13:23;;;;;;;;;;;;;;;;;;5044308;28;20035;-74
2023/11/09 15:15:53;;;;;;;;;;;;;;;;;;5058256;28;19924;-71
2023/11/09 15:18:22;;;;;;;;;;;;;;;;;;5049204;28;19925;-72
2023/11/09 15:20:50;;;;;;;;;;;;;;;;;;5054654;28;19924;-71
2023/11/09 15:23:17;;;;;;;;;;;;;;;;;;5049383;28;20387;-73
2023/11/09 15:25:50;;;;;;;;;;;;;;;;;;5048447;28;19978;-74
2023/11/09 15:28:17;;;;;;;;;;;;;;;;;;5047483;28;20036;-76
2023/11/09 15:30:44;;;;;;;;;;;;;;;;;;5042116;28;19933;-74
2023/11/09 15:33:14;;;;;;;;;;;;;;;;;;5045025;28;19932;-73
2023/11/09 15:35:41;;;;;;;;;;;;;;;;;;5046393;28;19977;-73
2023/11/09 15:38:09;;;;;;;;;;;;;;;;;;5043549;28;19929;-72
2023/11/09 15:40:36;;;;;;;;;;;;;;;;;;5044384;28;19960;-72
2023/11/09 15:43:07;;;;;;;;;;;;;;;;;;5045143;28;19924;-74
2023/11/09 15:45:34;;;;;;;;;;;;;;;;;;5045818;28;19936;-73
2023/11/09 15:48:01;;;;;;;;;;;;;;;;;;5049594;28;20016;-72
2023/11/09 15:50:28;;;;;;;;;;;;;;;;;;5050167;28;20020;-73
2023/11/09 15:52:56;;;;;;;;;;;;;;;;;;5040976;28;19980;-74
2023/11/09 15:55:23;;;;;;;;;;;;;;;;;;5043746;28;20051;-72
2023/11/09 15:57:55;;;;;;;;;;;;;;;;;;5043247;28;19925;-73
2023/11/09 16:00:22;;;;;;;;;;;;;;;;;;5049831;28;19970;-73
2023/11/09 16:02:51;;;;;;;;;;;;;;;;;;5044790;28;19925;-73
2023/11/09 16:05:19;;;;;;;;;;;;;;;;;;5047435;28;19929;-73
2023/11/09 16:07:47;;;;;;;;;;;;;;;;;;5045474;28;20593;-73
2023/11/09 16:10:18;;;;;;;;;;;;;;;;;;5042365;28;19932;-73
2023/11/09 16:12:45;;;;;;;;;;;;;;;;;;5048057;28;20626;-72
2023/11/09 16:15:12;;;;;;;;;;;;;;;;;;5045436;28;19926;-73
2023/11/09 16:17:40;;;;;;;;;;;;;;;;;;5044754;28;19925;-74
2023/11/09 16:20:12;;;;;;;;;;;;;;;;;;5040398;28;19940;-73
2023/11/09 16:22:39;;;;;;;;;;;;;;;;;;5047315;28;20405;-73
2023/11/09 16:25:13;;;;;;;;;;;;;;;;;;5047578;28;19960;-74
2023/11/09 16:27:41;;;;;;;;;;;;;;;;;;5046497;28;20011;-71
2023/11/09 16:30:08;;;;;;;;;;;;;;;;;;5046891;28;20078;-71
2023/11/09 16:32:35;;;;;;;;;;;;;;;;;;5053279;28;19971;-73
2023/11/09 16:35:04;;;;;;;;;;;;;;;;;;5051758;28;19971;-72
2023/11/09 16:37:31;;;;;;;;;;;;;;;;;;5055621;28;20300;-73
2023/11/09 16:39:59;;;;;;;;;;;;;;;;;;5056995;28;19924;-72
2023/11/09 16:42:26;;;;;;;;;;;;;;;;;;5056021;28;19971;-73
2023/11/09 16:44:53;;;;;;;;;;;;;;;;;;5047024;28;20011;-71
2023/11/09 16:47:21;;;;;;;;;;;;;;;;;;5048302;28;20068;-73
2023/11/09 16:49:48;;;;;;;;;;;;;;;;;;5053892;28;20008;-73
2023/11/09 16:52:15;;;;;;;;;;;;;;;;;;5050821;28;20461;-72
2023/11/09 16:54:42;;;;;;;;;;;;;;;;;;5050436;28;19932;-72
2023/11/09 16:57:10;;;;;;;;;;;;;;;;;;5050930;28;20015;-72